createdAt,value
2018-04-22T00:00:43.095Z,14.35
2018-04-22T00:01:43.091Z,14.29
2018-04-22T00:02:42.809Z,14.35
2018-04-22T00:03:42.785Z,14.31
2018-04-22T00:04:43.084Z,14.35
2018-04-22T00:05:43.026Z,14.31
2018-04-22T00:06:43.007Z,14.35
2018-04-22T00:07:42.738Z,14.35
2018-04-22T00:08:42.455Z,14.35
2018-04-22T00:09:42.719Z,14.35
2018-04-22T00:10:42.692Z,14.31
2018-04-22T00:11:42.677Z,14.32
2018-04-22T00:12:42.669Z,14.37
2018-04-22T00:13:42.670Z,14.37
2018-04-22T00:14:42.643Z,14.31
2018-04-22T00:15:42.626Z,14.28
2018-04-22T00:16:42.354Z,14.31
2018-04-22T00:17:42.618Z,14.35
2018-04-22T00:18:42.798Z,14.32
2018-04-22T00:19:42.879Z,14.35
2018-04-22T00:20:42.565Z,14.38
2018-04-22T00:21:43.019Z,14.37
2018-04-22T00:22:42.327Z,14.34
2018-04-22T00:23:42.523Z,14.27
2018-04-22T00:24:42.524Z,14.28
2018-04-22T00:25:42.498Z,14.29
2018-04-22T00:26:42.239Z,14.25
2018-04-22T00:27:42.223Z,14.28
2018-04-22T00:28:42.726Z,14.35
2018-04-22T00:29:42.713Z,14.24
2018-04-22T00:30:42.433Z,14.25
2018-04-22T00:31:42.699Z,14.25
2018-04-22T00:32:42.679Z,14.27
2018-04-22T00:33:42.399Z,14.21
2018-04-22T00:34:42.649Z,14.16
2018-04-22T00:35:42.105Z,14.24
2018-04-22T00:36:42.355Z,14.28
2018-04-22T00:37:42.339Z,14.32
2018-04-22T00:38:42.354Z,14.12
2018-04-22T00:39:42.585Z,14.1
2018-04-22T00:40:42.554Z,14.19
2018-04-22T00:41:42.562Z,14.07
2018-04-22T00:42:42.009Z,14.09
2018-04-22T00:43:42.266Z,14.06
2018-04-22T00:44:42.536Z,14.01
2018-04-22T00:45:42.242Z,13.99
2018-04-22T00:46:42.498Z,13.95
2018-04-22T00:47:42.223Z,13.94
2018-04-22T00:48:42.529Z,13.89
2018-04-22T00:49:42.190Z,13.89
2018-04-22T00:50:42.184Z,13.91
2018-04-22T00:51:42.162Z,13.87
2018-04-22T00:52:42.425Z,13.84
2018-04-22T00:53:42.399Z,13.94
2018-04-22T00:54:42.131Z,13.81
2018-04-22T00:55:42.387Z,13.76
2018-04-22T00:56:42.390Z,13.79
2018-04-22T00:57:42.072Z,13.84
2018-04-22T00:58:42.361Z,13.87
2018-04-22T00:59:41.789Z,13.76
2018-04-22T01:00:42.304Z,13.79
2018-04-22T01:01:41.762Z,13.79
2018-04-22T01:02:42.020Z,13.77
2018-04-22T01:03:42.000Z,13.65
2018-04-22T01:04:42.266Z,13.7
2018-04-22T01:05:41.975Z,13.7
2018-04-22T01:06:42.233Z,13.58
2018-04-22T01:07:42.222Z,13.61
2018-04-22T01:08:41.938Z,13.52
2018-04-22T01:09:41.919Z,13.54
2018-04-22T01:10:41.641Z,13.52
2018-04-22T01:11:41.890Z,13.43
2018-04-22T01:12:42.152Z,13.47
2018-04-22T01:13:41.865Z,13.41
2018-04-22T01:14:41.854Z,13.36
2018-04-22T01:15:41.837Z,13.38
2018-04-22T01:16:41.831Z,13.38
2018-04-22T01:17:41.821Z,13.41
2018-04-22T01:18:41.797Z,13.29
2018-04-22T01:19:42.049Z,13.33
2018-04-22T01:20:41.859Z,13.27
2018-04-22T01:21:41.755Z,13.29
2018-04-22T01:22:41.481Z,13.27
2018-04-22T01:23:41.725Z,13.27
2018-04-22T01:24:41.985Z,13.27
2018-04-22T01:25:41.715Z,13.25
2018-04-22T01:26:41.688Z,13.3
2018-04-22T01:27:41.683Z,13.17
2018-04-22T01:28:41.674Z,13.22
2018-04-22T01:29:41.386Z,13.27
2018-04-22T01:30:41.916Z,13.24
2018-04-22T01:31:41.894Z,13.21
2018-04-22T01:32:41.611Z,13.25
2018-04-22T01:33:41.861Z,13.36
2018-04-22T01:34:41.849Z,13.27
2018-04-22T01:35:41.837Z,13.27
2018-04-22T01:36:41.562Z,13.27
2018-04-22T01:37:41.809Z,13.17
2018-04-22T01:38:41.528Z,13.32
2018-04-22T01:39:41.517Z,13.27
2018-04-22T01:40:41.509Z,13.25
2018-04-22T01:41:41.761Z,13.21
2018-04-22T01:42:41.473Z,13.27
2018-04-22T01:43:41.458Z,13.29
2018-04-22T01:44:41.452Z,13.17
2018-04-22T01:45:41.436Z,13.14
2018-04-22T01:46:41.421Z,13.2
2018-04-22T01:47:41.407Z,13.18
2018-04-22T01:48:41.397Z,13.09
2018-04-22T01:49:41.434Z,13.09
2018-04-22T01:50:41.362Z,13.17
2018-04-22T01:51:41.085Z,13.22
2018-04-22T01:52:41.336Z,13.14
2018-04-22T01:53:41.585Z,13.03
2018-04-22T01:54:41.581Z,13.07
2018-04-22T01:55:41.296Z,13.06
2018-04-22T01:56:41.544Z,13.12
2018-04-22T01:57:41.007Z,13.09
2018-04-22T01:58:41.253Z,13.12
2018-04-22T01:59:41.509Z,13.09
2018-04-22T02:00:41.232Z,13.06
2018-04-22T02:01:41.212Z,13.09
2018-04-22T02:02:41.462Z,13.04
2018-04-22T02:03:41.453Z,13.02
2018-04-22T02:04:41.171Z,13.02
2018-04-22T02:05:40.899Z,13.09
2018-04-22T02:06:41.144Z,13.09
2018-04-22T02:07:41.132Z,13.09
2018-04-22T02:08:41.117Z,13.09
2018-04-22T02:09:41.372Z,13.2
2018-04-22T02:10:41.101Z,13.2
2018-04-22T02:11:41.351Z,13.12
2018-04-22T02:12:41.325Z,13.14
2018-04-22T02:13:41.311Z,13.12
2018-04-22T02:14:41.035Z,13.21
2018-04-22T02:15:40.757Z,13.2
2018-04-22T02:16:41.267Z,13.11
2018-04-22T02:17:40.997Z,13.12
2018-04-22T02:18:40.980Z,13.12
2018-04-22T02:19:40.965Z,13.14
2018-04-22T02:20:40.953Z,13.15
2018-04-22T02:21:41.201Z,13.2
2018-04-22T02:22:40.659Z,13.12
2018-04-22T02:23:41.180Z,13.11
2018-04-22T02:24:41.165Z,13.17
2018-04-22T02:25:40.886Z,13.17
2018-04-22T02:26:40.603Z,13.12
2018-04-22T02:27:40.851Z,13.07
2018-04-22T02:28:41.112Z,13.14
2018-04-22T02:29:40.558Z,13.12
2018-04-22T02:30:40.813Z,13.15
2018-04-22T02:31:41.062Z,13.27
2018-04-22T02:32:40.790Z,13.12
2018-04-22T02:33:40.777Z,13.07
2018-04-22T02:34:40.754Z,13.21
2018-04-22T02:35:41.016Z,13.07
2018-04-22T02:36:41.003Z,13.12
2018-04-22T02:37:40.717Z,13.07
2018-04-22T02:38:40.700Z,13
2018-04-22T02:39:40.696Z,13.02
2018-04-22T02:40:40.400Z,12.99
2018-04-22T02:41:40.923Z,12.96
2018-04-22T02:42:40.673Z,12.99
2018-04-22T02:43:40.387Z,12.99
2018-04-22T02:44:40.625Z,12.97
2018-04-22T02:45:40.639Z,13
2018-04-22T02:46:40.863Z,12.99
2018-04-22T02:47:40.842Z,13.03
2018-04-22T02:48:40.560Z,13.03
2018-04-22T02:49:40.585Z,12.99
2018-04-22T02:50:40.797Z,12.96
2018-04-22T02:51:40.780Z,12.96
2018-04-22T02:52:40.508Z,13.04
2018-04-22T02:53:40.234Z,12.99
2018-04-22T02:54:40.493Z,12.99
2018-04-22T02:55:40.733Z,13
2018-04-22T02:56:40.735Z,13
2018-04-22T02:57:40.168Z,13.07
2018-04-22T02:58:40.165Z,13
2018-04-22T02:59:40.401Z,13.02
2018-04-22T03:00:40.235Z,13.02
2018-04-22T03:01:40.381Z,13.02
2018-04-22T03:02:40.365Z,12.96
2018-04-22T03:03:40.627Z,12.93
2018-04-22T03:04:40.601Z,13
2018-04-22T03:05:40.324Z,12.97
2018-04-22T03:06:40.307Z,12.99
2018-04-22T03:07:40.290Z,12.97
2018-04-22T03:08:40.570Z,12.89
2018-04-22T03:09:40.529Z,12.93
2018-04-22T03:10:40.511Z,12.97
2018-04-22T03:11:40.497Z,12.88
2018-04-22T03:12:40.489Z,12.88
2018-04-22T03:13:40.209Z,12.87
2018-04-22T03:14:40.206Z,12.93
2018-04-22T03:15:40.228Z,12.92
2018-04-22T03:16:40.175Z,12.95
2018-04-22T03:17:40.425Z,12.93
2018-04-22T03:18:40.397Z,12.93
2018-04-22T03:19:40.386Z,12.97
2018-04-22T03:20:40.375Z,12.92
2018-04-22T03:21:40.097Z,12.95
2018-04-22T03:22:40.078Z,12.93
2018-04-22T03:23:40.071Z,12.95
2018-04-22T03:24:40.059Z,12.87
2018-04-22T03:25:40.312Z,12.84
2018-04-22T03:26:40.294Z,12.87
2018-04-22T03:27:40.015Z,12.95
2018-04-22T03:28:40.273Z,12.93
2018-04-22T03:29:39.988Z,12.88
2018-04-22T03:30:40.236Z,13
2018-04-22T03:31:39.955Z,12.99
2018-04-22T03:32:39.952Z,12.96
2018-04-22T03:33:40.198Z,12.95
2018-04-22T03:34:39.916Z,13.03
2018-04-22T03:35:39.900Z,13.12
2018-04-22T03:36:40.176Z,13.09
2018-04-22T03:37:39.923Z,13.07
2018-04-22T03:38:40.119Z,13.04
2018-04-22T03:39:40.120Z,13.21
2018-04-22T03:40:39.843Z,13.09
2018-04-22T03:41:40.080Z,13.18
2018-04-22T03:42:40.133Z,13.22
2018-04-22T03:43:39.802Z,13.18
2018-04-22T03:44:39.782Z,13.21
2018-04-22T03:45:39.786Z,13.2
2018-04-22T03:46:40.069Z,13.2
2018-04-22T03:47:40.053Z,13.15
2018-04-22T03:48:39.997Z,13.14
2018-04-22T03:49:39.970Z,13.21
2018-04-22T03:50:39.692Z,13.15
2018-04-22T03:51:39.949Z,13.11
2018-04-22T03:52:39.938Z,13.11
2018-04-22T03:53:39.652Z,13.21
2018-04-22T03:54:39.644Z,13.04
2018-04-22T03:55:39.898Z,13.15
2018-04-22T03:56:39.630Z,13.14
2018-04-22T03:57:39.606Z,13.11
2018-04-22T03:58:39.314Z,13.09
2018-04-22T03:59:39.831Z,13.03
2018-04-22T04:00:39.813Z,13.14
2018-04-22T04:01:39.545Z,13.07
2018-04-22T04:02:39.525Z,13.11
2018-04-22T04:03:39.512Z,13.11
2018-04-22T04:04:39.769Z,13.09
2018-04-22T04:05:39.485Z,13.07
2018-04-22T04:06:39.734Z,13.09
2018-04-22T04:07:39.453Z,13.06
2018-04-22T04:08:39.716Z,13.12
2018-04-22T04:09:39.710Z,13.04
2018-04-22T04:10:39.445Z,13.02
2018-04-22T04:11:39.133Z,13.14
2018-04-22T04:12:39.385Z,13.09
2018-04-22T04:13:39.638Z,13.12
2018-04-22T04:14:39.623Z,13.11
2018-04-22T04:15:39.348Z,13.03
2018-04-22T04:16:39.594Z,13
2018-04-22T04:17:39.320Z,13.03
2018-04-22T04:18:39.299Z,12.97
2018-04-22T04:19:39.566Z,13.06
2018-04-22T04:20:39.271Z,13.03
2018-04-22T04:21:39.261Z,12.99
2018-04-22T04:22:39.505Z,12.96
2018-04-22T04:23:39.500Z,12.99
2018-04-22T04:24:39.230Z,12.97
2018-04-22T04:25:38.935Z,12.92
2018-04-22T04:26:39.188Z,12.95
2018-04-22T04:27:39.445Z,12.88
2018-04-22T04:28:38.902Z,12.85
2018-04-22T04:29:38.885Z,12.88
2018-04-22T04:30:39.177Z,12.84
2018-04-22T04:31:39.383Z,12.85
2018-04-22T04:32:39.102Z,12.85
2018-04-22T04:33:39.361Z,12.88
2018-04-22T04:34:39.079Z,12.82
2018-04-22T04:35:39.065Z,12.87
2018-04-22T04:36:39.050Z,12.79
2018-04-22T04:37:39.354Z,12.75
2018-04-22T04:38:39.033Z,12.75
2018-04-22T04:39:39.279Z,12.74
2018-04-22T04:40:38.992Z,12.71
2018-04-22T04:41:39.442Z,12.67
2018-04-22T04:42:39.234Z,12.64
2018-04-22T04:43:38.947Z,12.66
2018-04-22T04:44:39.199Z,12.64
2018-04-22T04:45:38.925Z,12.66
2018-04-22T04:46:39.175Z,12.64
2018-04-22T04:47:39.162Z,12.67
2018-04-22T04:48:39.144Z,12.66
2018-04-22T04:49:39.130Z,12.71
2018-04-22T04:50:38.855Z,12.67
2018-04-22T04:51:38.834Z,12.57
2018-04-22T04:52:38.559Z,12.6
2018-04-22T04:53:38.545Z,12.64
2018-04-22T04:54:39.062Z,12.69
2018-04-22T04:55:38.776Z,12.6
2018-04-22T04:56:39.029Z,12.62
2018-04-22T04:57:38.757Z,12.64
2018-04-22T04:58:39.011Z,12.62
2018-04-22T04:59:38.730Z,12.67
2018-04-22T05:00:38.710Z,12.64
2018-04-22T05:01:38.965Z,12.75
2018-04-22T05:02:38.947Z,12.67
2018-04-22T05:03:38.667Z,12.7
2018-04-22T05:04:38.654Z,12.7
2018-04-22T05:05:38.921Z,12.7
2018-04-22T05:06:38.362Z,12.74
2018-04-22T05:07:38.615Z,12.74
2018-04-22T05:08:38.877Z,12.82
2018-04-22T05:09:38.589Z,12.87
2018-04-22T05:10:38.874Z,12.89
2018-04-22T05:11:38.561Z,12.87
2018-04-22T05:12:38.272Z,12.88
2018-04-22T05:13:38.532Z,12.84
2018-04-22T05:14:38.249Z,12.89
2018-04-22T05:15:38.759Z,12.95
2018-04-22T05:16:38.215Z,12.89
2018-04-22T05:17:38.735Z,12.93
2018-04-22T05:18:38.778Z,12.92
2018-04-22T05:19:38.175Z,12.95
2018-04-22T05:20:38.430Z,13.04
2018-04-22T05:21:38.410Z,12.95
2018-04-22T05:22:38.393Z,13.03
2018-04-22T05:23:38.645Z,13.11
2018-04-22T05:24:38.630Z,13.15
2018-04-22T05:25:38.354Z,13.18
2018-04-22T05:26:38.073Z,13.24
2018-04-22T05:27:38.054Z,13.21
2018-04-22T05:28:38.047Z,13.24
2018-04-22T05:29:38.295Z,13.25
2018-04-22T05:30:38.284Z,13.25
2018-04-22T05:31:38.534Z,13.21
2018-04-22T05:32:38.254Z,13.25
2018-04-22T05:33:38.240Z,13.3
2018-04-22T05:34:38.224Z,13.37
2018-04-22T05:35:37.955Z,13.36
2018-04-22T05:36:38.549Z,13.4
2018-04-22T05:37:37.917Z,13.41
2018-04-22T05:38:38.175Z,13.41
2018-04-22T05:39:38.171Z,13.49
2018-04-22T05:40:37.888Z,13.52
2018-04-22T05:41:38.392Z,13.44
2018-04-22T05:42:38.450Z,13.52
2018-04-22T05:43:38.378Z,13.54
2018-04-22T05:44:38.094Z,13.59
2018-04-22T05:45:38.074Z,13.63
2018-04-22T05:46:38.063Z,13.79
2018-04-22T05:47:38.055Z,13.76
2018-04-22T05:48:38.033Z,13.83
2018-04-22T05:49:37.759Z,13.81
2018-04-22T05:50:38.275Z,13.76
2018-04-22T05:51:38.261Z,13.8
2018-04-22T05:52:37.985Z,13.8
2018-04-22T05:53:37.968Z,13.8
2018-04-22T05:54:38.222Z,13.89
2018-04-22T05:55:37.945Z,13.81
2018-04-22T05:56:37.925Z,13.77
2018-04-22T05:57:37.908Z,13.91
2018-04-22T05:58:38.176Z,13.79
2018-04-22T05:59:38.152Z,13.83
2018-04-22T06:00:38.134Z,13.88
2018-04-22T06:01:38.174Z,13.92
2018-04-22T06:02:38.110Z,13.94
2018-04-22T06:03:37.827Z,13.95
2018-04-22T06:04:37.559Z,13.94
2018-04-22T06:05:37.538Z,14.04
2018-04-22T06:06:38.077Z,14.07
2018-04-22T06:07:38.047Z,14.07
2018-04-22T06:08:38.201Z,14.17
2018-04-22T06:09:38.027Z,14.16
2018-04-22T06:10:38.001Z,14.12
2018-04-22T06:11:37.997Z,14.24
2018-04-22T06:12:37.979Z,14.2
2018-04-22T06:13:37.984Z,14.2
2018-04-22T06:14:37.685Z,14.31
2018-04-22T06:15:37.673Z,14.21
2018-04-22T06:16:37.928Z,14.38
2018-04-22T06:17:37.651Z,14.39
2018-04-22T06:18:37.634Z,14.32
2018-04-22T06:19:37.636Z,14.37
2018-04-22T06:20:37.876Z,14.42
2018-04-22T06:21:37.610Z,14.46
2018-04-22T06:22:37.603Z,14.49
2018-04-22T06:23:37.578Z,14.46
2018-04-22T06:24:37.565Z,14.5
2018-04-22T06:25:37.551Z,14.43
2018-04-22T06:26:37.536Z,14.47
2018-04-22T06:27:37.800Z,14.57
2018-04-22T06:28:37.504Z,14.52
2018-04-22T06:29:37.760Z,14.68
2018-04-22T06:30:37.745Z,14.78
2018-04-22T06:31:37.465Z,14.78
2018-04-22T06:32:37.191Z,14.8
2018-04-22T06:33:37.518Z,14.91
2018-04-22T06:34:37.432Z,14.93
2018-04-22T06:35:37.426Z,14.95
2018-04-22T06:36:37.410Z,15.05
2018-04-22T06:37:37.395Z,15.11
2018-04-22T06:38:37.643Z,15.11
2018-04-22T06:39:37.792Z,15.24
2018-04-22T06:40:37.629Z,15.23
2018-04-22T06:41:37.817Z,15.33
2018-04-22T06:42:37.614Z,15.33
2018-04-22T06:43:37.373Z,15.42
2018-04-22T06:44:37.580Z,15.48
2018-04-22T06:45:37.314Z,15.46
2018-04-22T06:46:37.281Z,15.49
2018-04-22T06:47:37.289Z,15.45
2018-04-22T06:48:36.996Z,15.6
2018-04-22T06:49:37.251Z,15.67
2018-04-22T06:50:37.258Z,15.64
2018-04-22T06:51:37.484Z,15.78
2018-04-22T06:52:37.217Z,15.76
2018-04-22T06:53:37.525Z,15.82
2018-04-22T06:54:37.185Z,15.88
2018-04-22T06:55:37.177Z,16.01
2018-04-22T06:56:36.895Z,16.11
2018-04-22T06:57:37.143Z,16.11
2018-04-22T06:58:37.416Z,16.16
2018-04-22T06:59:37.394Z,16.18
2018-04-22T07:00:37.125Z,16.25
2018-04-22T07:01:36.841Z,16.26
2018-04-22T07:02:37.098Z,16.42
2018-04-22T07:03:37.074Z,16.44
2018-04-22T07:04:37.093Z,16.49
2018-04-22T07:05:37.052Z,16.56
2018-04-22T07:06:36.795Z,16.71
2018-04-22T07:07:37.296Z,16.7
2018-04-22T07:08:37.491Z,16.74
2018-04-22T07:09:37.007Z,16.85
2018-04-22T07:10:36.993Z,16.78
2018-04-22T07:11:36.990Z,16.83
2018-04-22T07:12:36.717Z,17
2018-04-22T07:13:37.245Z,16.92
2018-04-22T07:14:36.948Z,17.08
2018-04-22T07:15:36.943Z,17.17
2018-04-22T07:16:37.206Z,17.1
2018-04-22T07:17:36.651Z,17.17
2018-04-22T07:18:36.903Z,17.23
2018-04-22T07:19:36.628Z,17.33
2018-04-22T07:20:36.624Z,17.41
2018-04-22T07:21:37.144Z,17.32
2018-04-22T07:22:37.334Z,17.38
2018-04-22T07:23:36.956Z,17.38
2018-04-22T07:24:36.847Z,17.5
2018-04-22T07:25:36.569Z,17.64
2018-04-22T07:26:37.092Z,17.67
2018-04-22T07:27:37.084Z,17.74
2018-04-22T07:28:37.270Z,17.73
2018-04-22T07:29:37.097Z,17.84
2018-04-22T07:30:37.040Z,17.89
2018-04-22T07:31:37.039Z,17.99
2018-04-22T07:32:36.759Z,18.06
2018-04-22T07:33:36.484Z,18.07
2018-04-22T07:34:36.740Z,18.12
2018-04-22T07:35:36.460Z,18.1
2018-04-22T07:36:36.916Z,18.13
2018-04-22T07:37:36.971Z,18.19
2018-04-22T07:38:36.956Z,18.28
2018-04-22T07:39:36.948Z,18.31
2018-04-22T07:40:37.019Z,18.39
2018-04-22T07:41:36.670Z,18.49
2018-04-22T07:42:37.006Z,18.5
2018-04-22T07:43:36.692Z,18.57
2018-04-22T07:44:36.636Z,18.57
2018-04-22T07:45:36.624Z,18.65
2018-04-22T07:46:36.611Z,18.64
2018-04-22T07:47:36.882Z,18.77
2018-04-22T07:48:36.598Z,18.82
2018-04-22T07:49:36.583Z,18.91
2018-04-22T07:50:36.578Z,18.94
2018-04-22T07:51:37.031Z,19.05
2018-04-22T07:52:36.819Z,18.99
2018-04-22T07:53:36.806Z,19.1
2018-04-22T07:54:36.270Z,19.2
2018-04-22T07:55:36.526Z,19.23
2018-04-22T07:56:36.254Z,19.32
2018-04-22T07:57:36.786Z,19.32
2018-04-22T07:58:36.531Z,19.38
2018-04-22T07:59:36.769Z,19.42
2018-04-22T08:00:36.224Z,19.36
2018-04-22T08:01:36.216Z,19.39
2018-04-22T08:02:36.209Z,19.47
2018-04-22T08:03:36.729Z,19.55
2018-04-22T08:04:36.449Z,19.58
2018-04-22T08:05:36.706Z,19.58
2018-04-22T08:06:36.715Z,19.66
2018-04-22T08:07:36.688Z,19.75
2018-04-22T08:08:36.409Z,19.84
2018-04-22T08:09:36.680Z,19.87
2018-04-22T08:10:36.399Z,19.94
2018-04-22T08:12:08.734Z,20.18
2018-04-22T08:12:36.375Z,20.13
2018-04-22T08:13:36.644Z,20.49
2018-04-22T08:14:36.631Z,21.06
2018-04-22T08:15:36.349Z,21.54
2018-04-22T08:16:36.342Z,21.76
2018-04-22T08:17:36.347Z,22.31
2018-04-22T08:18:36.068Z,22.82
2018-04-22T08:19:36.388Z,22.97
2018-04-22T08:20:36.314Z,22.92
2018-04-22T08:21:36.572Z,22.89
2018-04-22T08:22:36.313Z,22.96
2018-04-22T08:23:36.561Z,22.89
2018-04-22T08:24:36.562Z,22.94
2018-04-22T08:25:36.560Z,22.96
2018-04-22T08:26:36.538Z,23.12
2018-04-22T08:27:36.299Z,23.24
2018-04-22T08:28:36.268Z,23.49
2018-04-22T08:29:36.526Z,23.64
2018-04-22T08:30:36.514Z,23.64
2018-04-22T08:31:36.247Z,23.83
2018-04-22T08:32:36.246Z,24.1
2018-04-22T08:33:36.501Z,24.29
2018-04-22T08:34:36.234Z,24.35
2018-04-22T08:35:35.960Z,24.47
2018-04-22T08:36:36.493Z,24.41
2018-04-22T08:37:36.219Z,24.49
2018-04-22T08:38:35.945Z,24.64
2018-04-22T08:39:36.472Z,25.01
2018-04-22T08:40:36.201Z,25.02
2018-04-22T08:41:36.397Z,24.98
2018-04-22T08:42:36.463Z,24.98
2018-04-22T08:43:35.930Z,25.07
2018-04-22T08:44:36.185Z,25.2
2018-04-22T08:45:36.189Z,25.12
2018-04-22T08:46:36.170Z,25.16
2018-04-22T08:47:36.432Z,25.07
2018-04-22T08:48:36.429Z,25
2018-04-22T08:49:36.423Z,24.82
2018-04-22T08:50:36.152Z,24.8
2018-04-22T08:51:36.360Z,24.88
2018-04-22T08:52:36.152Z,24.8
2018-04-22T08:53:36.142Z,24.8
2018-04-22T08:54:36.398Z,24.8
2018-04-22T08:55:36.172Z,24.64
2018-04-22T08:56:36.187Z,24.54
2018-04-22T08:57:36.388Z,24.24
2018-04-22T08:58:36.110Z,24.22
2018-04-22T08:59:36.370Z,24.13
2018-04-22T09:00:36.100Z,24.12
2018-04-22T09:01:36.095Z,24.07
2018-04-22T09:02:35.828Z,24.07
2018-04-22T09:03:36.090Z,24.01
2018-04-22T09:04:36.344Z,24
2018-04-22T09:05:36.078Z,24.02
2018-04-22T09:06:36.333Z,24
2018-04-22T09:07:35.801Z,23.94
2018-04-22T09:08:36.054Z,23.89
2018-04-22T09:09:35.790Z,23.92
2018-04-22T09:10:36.313Z,23.97
2018-04-22T09:11:36.039Z,24.02
2018-04-22T09:12:36.312Z,24.32
2018-04-22T09:13:36.306Z,24.68
2018-04-22T09:14:36.022Z,25
2018-04-22T09:15:36.021Z,25.2
2018-04-22T09:16:35.751Z,25.3
2018-04-22T09:17:36.280Z,25.61
2018-04-22T09:18:36.271Z,25.75
2018-04-22T09:19:36.280Z,25.8
2018-04-22T09:20:35.998Z,25.75
2018-04-22T09:21:36.269Z,25.69
2018-04-22T09:22:35.726Z,25.62
2018-04-22T09:23:36.252Z,25.56
2018-04-22T09:24:36.263Z,25.53
2018-04-22T09:25:35.978Z,25.54
2018-04-22T09:26:36.241Z,25.56
2018-04-22T09:27:35.968Z,25.56
2018-04-22T09:28:35.963Z,25.5
2018-04-22T09:29:35.963Z,25.43
2018-04-22T09:30:35.957Z,25.53
2018-04-22T09:31:35.952Z,25.62
2018-04-22T09:32:35.954Z,25.53
2018-04-22T09:33:35.946Z,25.5
2018-04-22T09:34:35.951Z,25.42
2018-04-22T09:35:36.202Z,25.42
2018-04-22T09:36:36.192Z,25.5
2018-04-22T09:37:36.195Z,25.31
2018-04-22T09:38:35.917Z,25.32
2018-04-22T09:39:36.179Z,25.17
2018-04-22T09:40:36.175Z,25.2
2018-04-22T09:41:35.908Z,25.17
2018-04-22T09:42:36.164Z,25.25
2018-04-22T09:43:35.632Z,25.22
2018-04-22T09:44:36.155Z,25.09
2018-04-22T09:45:35.882Z,25.06
2018-04-22T09:46:35.879Z,25.07
2018-04-22T09:47:36.141Z,25.02
2018-04-22T09:48:36.151Z,25.02
2018-04-22T09:49:36.130Z,24.97
2018-04-22T09:50:35.857Z,24.98
2018-04-22T09:51:36.161Z,25.07
2018-04-22T09:52:36.121Z,25.05
2018-04-22T09:53:35.587Z,25.15
2018-04-22T09:54:35.577Z,25.16
2018-04-22T09:55:35.571Z,25.24
2018-04-22T09:56:36.103Z,25.22
2018-04-22T09:57:35.830Z,25.3
2018-04-22T09:58:35.823Z,25.2
2018-04-22T09:59:36.083Z,25.17
2018-04-22T10:00:35.813Z,25.2
2018-04-22T10:01:35.809Z,25.19
2018-04-22T10:02:35.800Z,25.38
2018-04-22T10:03:36.060Z,25.47
2018-04-22T10:04:35.801Z,25.53
2018-04-22T10:05:35.781Z,25.62
2018-04-22T10:06:35.780Z,25.61
2018-04-22T10:07:35.507Z,25.52
2018-04-22T10:08:35.768Z,25.57
2018-04-22T10:09:36.032Z,25.5
2018-04-22T10:10:36.021Z,25.62
2018-04-22T10:11:35.754Z,25.61
2018-04-22T10:12:35.747Z,25.65
2018-04-22T10:13:35.478Z,25.53
2018-04-22T10:14:36.013Z,25.44
2018-04-22T10:15:36.014Z,25.53
2018-04-22T10:16:35.848Z,25.59
2018-04-22T10:17:35.724Z,25.79
2018-04-22T10:18:35.719Z,25.79
2018-04-22T10:19:35.721Z,25.89
2018-04-22T10:20:35.707Z,26.01
2018-04-22T10:21:35.710Z,25.98
2018-04-22T10:22:35.699Z,26.04
2018-04-22T10:23:35.705Z,26.12
2018-04-22T10:24:35.957Z,26.24
2018-04-22T10:25:35.895Z,26.24
2018-04-22T10:26:35.947Z,26.18
2018-04-22T10:27:35.682Z,26.35
2018-04-22T10:28:36.155Z,26.46
2018-04-22T10:29:35.676Z,26.73
2018-04-22T10:30:35.679Z,26.77
2018-04-22T10:31:35.671Z,26.96
2018-04-22T10:32:35.660Z,27.1
2018-04-22T10:33:35.918Z,27.23
2018-04-22T10:34:35.917Z,27.48
2018-04-22T10:35:35.385Z,27.64
2018-04-22T10:36:35.876Z,27.48
2018-04-22T10:37:35.647Z,27.46
2018-04-22T10:38:35.904Z,27.35
2018-04-22T10:39:35.915Z,27.5
2018-04-22T10:40:35.364Z,27.58
2018-04-22T10:41:35.640Z,27.8
2018-04-22T10:42:35.357Z,27.71
2018-04-22T10:43:35.891Z,27.85
2018-04-22T10:44:35.881Z,28.07
2018-04-22T10:45:35.355Z,28.32
2018-04-22T10:46:35.892Z,28.46
2018-04-22T10:47:35.608Z,28.36
2018-04-22T10:48:35.605Z,28.46
2018-04-22T10:49:35.871Z,28.17
2018-04-22T10:50:35.875Z,28.09
2018-04-22T10:51:35.874Z,28.28
2018-04-22T10:52:35.595Z,28.35
2018-04-22T10:53:35.870Z,28.43
2018-04-22T10:54:35.600Z,28.7
2018-04-22T10:55:35.888Z,28.84
2018-04-22T10:56:35.864Z,29.04
2018-04-22T10:57:35.606Z,29.1
2018-04-22T10:58:35.590Z,29.33
2018-04-22T10:59:35.592Z,29.4
2018-04-22T11:00:35.602Z,29.44
2018-04-22T11:01:35.866Z,29.33
2018-04-22T11:02:35.596Z,29.13
2018-04-22T11:03:35.606Z,29.08
2018-04-22T11:04:35.658Z,28.96
2018-04-22T11:05:35.334Z,29.07
2018-04-22T11:06:35.338Z,29.01
2018-04-22T11:07:35.528Z,28.73
2018-04-22T11:08:35.593Z,28.53
2018-04-22T11:09:35.591Z,28.26
2018-04-22T11:10:35.323Z,28.01
2018-04-22T11:11:35.603Z,27.77
2018-04-22T11:12:35.325Z,27.74
2018-04-22T11:13:35.850Z,27.71
2018-04-22T11:14:35.321Z,27.73
2018-04-22T11:15:35.592Z,27.88
2018-04-22T11:16:35.587Z,27.98
2018-04-22T11:17:35.582Z,28.01
2018-04-22T11:18:35.589Z,27.98
2018-04-22T11:19:35.851Z,28.22
2018-04-22T11:20:35.583Z,28.31
2018-04-22T11:21:35.587Z,28.35
2018-04-22T11:22:35.602Z,28.62
2018-04-22T11:23:35.589Z,28.72
2018-04-22T11:24:35.847Z,28.84
2018-04-22T11:25:35.317Z,28.88
2018-04-22T11:26:35.845Z,28.87
2018-04-22T11:27:35.584Z,29.06
2018-04-22T11:28:35.312Z,29.18
2018-04-22T11:29:35.576Z,29.08
2018-04-22T11:30:35.320Z,29.22
2018-04-22T11:31:35.580Z,29.53
2018-04-22T11:32:35.846Z,29.68
2018-04-22T11:33:35.895Z,29.62
2018-04-22T11:34:35.656Z,29.53
2018-04-22T11:35:35.862Z,29.5
2018-04-22T11:36:35.581Z,29.55
2018-04-22T11:37:35.791Z,29.56
2018-04-22T11:38:35.594Z,29.55
2018-04-22T11:39:35.584Z,29.49
2018-04-22T11:40:35.852Z,29.4
2018-04-22T11:41:35.863Z,29.43
2018-04-22T11:42:35.588Z,29.22
2018-04-22T11:43:35.594Z,29.15
2018-04-22T11:44:35.856Z,29.03
2018-04-22T11:45:35.810Z,28.88
2018-04-22T11:46:35.861Z,28.82
2018-04-22T11:47:36.082Z,28.88
2018-04-22T11:48:35.600Z,28.93
2018-04-22T11:49:35.596Z,29.04
2018-04-22T11:50:35.600Z,29.15
2018-04-22T11:51:35.336Z,29.2
2018-04-22T11:52:35.865Z,29.22
2018-04-22T11:53:35.673Z,29.19
2018-04-22T11:54:35.604Z,29.08
2018-04-22T11:55:35.597Z,29.1
2018-04-22T11:56:35.862Z,29.29
2018-04-22T11:57:35.328Z,29.47
2018-04-22T11:58:35.863Z,29.49
2018-04-22T11:59:35.860Z,29.87
2018-04-22T12:00:35.864Z,29.99
2018-04-22T12:01:36.079Z,30.14
2018-04-22T12:02:35.608Z,30.45
2018-04-22T12:03:35.880Z,30.74
2018-04-22T12:04:35.597Z,31.12
2018-04-22T12:05:35.870Z,31.58
2018-04-22T12:06:36.003Z,31.93
2018-04-22T12:07:36.076Z,31.98
2018-04-22T12:08:35.605Z,31.95
2018-04-22T12:09:35.882Z,31.65
2018-04-22T12:10:35.895Z,31.36
2018-04-22T12:11:35.408Z,31.12
2018-04-22T12:12:35.897Z,30.74
2018-04-22T12:13:35.902Z,30.78
2018-04-22T12:14:35.644Z,30.53
2018-04-22T12:15:35.631Z,30.27
2018-04-22T12:16:35.635Z,29.96
2018-04-22T12:17:35.895Z,29.74
2018-04-22T12:18:35.371Z,29.65
2018-04-22T12:19:35.911Z,29.99
2018-04-22T12:20:35.911Z,30.07
2018-04-22T12:21:35.912Z,30.47
2018-04-22T12:22:35.653Z,30.72
2018-04-22T12:23:35.713Z,30.56
2018-04-22T12:24:35.383Z,30.14
2018-04-22T12:25:35.916Z,30.31
2018-04-22T12:26:35.658Z,30.61
2018-04-22T12:27:35.661Z,30.64
2018-04-22T12:28:35.662Z,31.17
2018-04-22T12:29:35.404Z,31.7
2018-04-22T12:30:35.935Z,32.18
2018-04-22T12:31:35.410Z,32.55
2018-04-22T12:32:35.694Z,31.98
2018-04-22T12:33:35.683Z,31.64
2018-04-22T12:34:35.945Z,31.4
2018-04-22T12:35:35.682Z,31.23
2018-04-22T12:36:35.955Z,30.99
2018-04-22T12:37:35.974Z,30.94
2018-04-22T12:38:35.695Z,30.43
2018-04-22T12:39:35.695Z,30.3
2018-04-22T12:40:35.701Z,30.12
2018-04-22T12:41:36.173Z,29.97
2018-04-22T12:42:35.973Z,30.3
2018-04-22T12:43:35.714Z,30.99
2018-04-22T12:44:35.706Z,31.35
2018-04-22T12:45:35.978Z,31.54
2018-04-22T12:46:35.716Z,31.92
2018-04-22T12:47:35.716Z,32.1
2018-04-22T12:48:35.985Z,32.62
2018-04-22T12:49:35.725Z,32.91
2018-04-22T12:50:35.733Z,33.19
2018-04-22T12:51:36.006Z,33.46
2018-04-22T12:52:36.006Z,33.8
2018-04-22T12:53:35.744Z,34.08
2018-04-22T12:54:35.483Z,34.38
2018-04-22T12:55:35.482Z,34.02
2018-04-22T12:56:35.755Z,34.07